sensor_id;sensor_type;location;lat;lon;timestamp;temperature;humidity
30150;DHT22;16962;48.646;9.026;2022-12-29T00:01:02;8.80;99.90
30150;DHT22;16962;48.646;9.026;2022-12-29T00:03:50;8.70;99.90
30150;DHT22;16962;48.646;9.026;2022-12-29T00:06:37;8.70;99.90
30150;DHT22;16962;48.646;9.026;2022-12-29T00:09:26;8.80;99.90
30150;DHT22;16962;48.646;9.026;2022-12-29T00:12:13;8.80;99.90
30150;DHT22;16962;48.646;9.026;2022-12-29T00:15:05;8.80;99.90
30150;DHT22;16962;48.646;9.026;2022-12-29T00:18:11;8.90;99.90
30150;DHT22;16962;48.646;9.026;2022-12-29T00:21:00;8.90;99.90
30150;DHT22;16962;48.646;9.026;2022-12-29T00:24:16;9.00;99.90
30150;DHT22;16962;48.646;9.026;2022-12-29T00:27:18;8.90;99.90
30150;DHT22;16962;48.646;9.026;2022-12-29T00:30:41;8.90;99.90
30150;DHT22;16962;48.646;9.026;2022-12-29T00:34:00;8.90;99.90
30150;DHT22;16962;48.646;9.026;2022-12-29T00:37:07;8.80;99.90
30150;DHT22;16962;48.646;9.026;2022-12-29T00:39:55;8.80;99.90
30150;DHT22;16962;48.646;9.026;2022-12-29T00:43:00;8.90;99.90
30150;DHT22;16962;48.646;9.026;2022-12-29T00:46:23;8.80;99.90
30150;DHT22;16962;48.646;9.026;2022-12-29T00:49:12;8.80;99.90
30150;DHT22;16962;48.646;9.026;2022-12-29T00:52:19;8.80;99.90
30150;DHT22;16962;48.646;9.026;2022-12-29T00:55:12;8.80;99.90
30150;DHT22;16962;48.646;9.026;2022-12-29T00:57:59;8.70;99.90
30150;DHT22;16962;48.646;9.026;2022-12-29T01:00:49;8.70;99.90
30150;DHT22;16962;48.646;9.026;2022-12-29T01:03:41;8.70;99.90
30150;DHT22;16962;48.646;9.026;2022-12-29T01:06:28;8.70;99.90
30150;DHT22;16962;48.646;9.026;2022-12-29T01:09:18;8.80;99.90
30150;DHT22;16962;48.646;9.026;2022-12-29T01:12:28;8.70;99.90
30150;DHT22;16962;48.646;9.026;2022-12-29T01:15:27;8.80;99.90
30150;DHT22;16962;48.646;9.026;2022-12-29T01:18:15;8.80;99.90
30150;DHT22;16962;48.646;9.026;2022-12-29T01:21:05;8.90;99.90
30150;DHT22;16962;48.646;9.026;2022-12-29T01:23:52;8.80;99.90
30150;DHT22;16962;48.646;9.026;2022-12-29T01:26:40;8.90;99.90
30150;DHT22;16962;48.646;9.026;2022-12-29T01:29:28;8.90;99.90
30150;DHT22;16962;48.646;9.026;2022-12-29T01:32:17;8.90;99.90
30150;DHT22;16962;48.646;9.026;2022-12-29T01:35:05;9.00;99.90
30150;DHT22;16962;48.646;9.026;2022-12-29T01:37:53;9.10;99.90
30150;DHT22;16962;48.646;9.026;2022-12-29T01:40:46;9.10;99.90
30150;DHT22;16962;48.646;9.026;2022-12-29T01:46:40;9.20;99.90
30150;DHT22;16962;48.646;9.026;2022-12-29T01:49:28;9.10;99.90
30150;DHT22;16962;48.646;9.026;2022-12-29T01:52:16;9.20;99.90
30150;DHT22;16962;48.646;9.026;2022-12-29T01:55:05;9.20;99.90
30150;DHT22;16962;48.646;9.026;2022-12-29T01:57:56;9.30;99.90
30150;DHT22;16962;48.646;9.026;2022-12-29T02:00:46;9.40;99.90
30150;DHT22;16962;48.646;9.026;2022-12-29T02:03:37;9.30;99.90
30150;DHT22;16962;48.646;9.026;2022-12-29T02:06:35;9.40;99.90
30150;DHT22;16962;48.646;9.026;2022-12-29T02:09:28;9.40;99.90
30150;DHT22;16962;48.646;9.026;2022-12-29T02:12:18;9.40;99.90
30150;DHT22;16962;48.646;9.026;2022-12-29T02:28:53;9.50;99.90
30150;DHT22;16962;48.646;9.026;2022-12-29T02:37:56;9.70;99.90
30150;DHT22;16962;48.646;9.026;2022-12-29T02:49:32;9.70;99.90
30150;DHT22;16962;48.646;9.026;2022-12-29T02:52:31;9.80;99.90
30150;DHT22;16962;48.646;9.026;2022-12-29T02:55:21;9.80;99.90
30150;DHT22;16962;48.646;9.026;2022-12-29T02:58:21;9.70;99.90
30150;DHT22;16962;48.646;9.026;2022-12-29T03:01:24;9.70;99.90
30150;DHT22;16962;48.646;9.026;2022-12-29T03:04:33;9.80;99.90
30150;DHT22;16962;48.646;9.026;2022-12-29T03:13:52;9.70;99.90
30150;DHT22;16962;48.646;9.026;2022-12-29T03:17:10;9.60;99.90
30150;DHT22;16962;48.646;9.026;2022-12-29T03:20:07;9.80;99.90
30150;DHT22;16962;48.646;9.026;2022-12-29T03:22:59;10.00;99.90
30150;DHT22;16962;48.646;9.026;2022-12-29T03:25:51;10.00;99.90
30150;DHT22;16962;48.646;9.026;2022-12-29T03:28:42;10.10;99.90
30150;DHT22;16962;48.646;9.026;2022-12-29T03:31:33;10.20;99.90
30150;DHT22;16962;48.646;9.026;2022-12-29T03:34:21;10.20;99.90
30150;DHT22;16962;48.646;9.026;2022-12-29T03:37:15;10.20;99.90
30150;DHT22;16962;48.646;9.026;2022-12-29T03:40:05;10.20;99.90
30150;DHT22;16962;48.646;9.026;2022-12-29T03:42:56;10.20;99.90
30150;DHT22;16962;48.646;9.026;2022-12-29T03:45:44;10.10;99.90
30150;DHT22;16962;48.646;9.026;2022-12-29T03:48:31;10.10;99.90
30150;DHT22;16962;48.646;9.026;2022-12-29T03:51:30;10.00;99.90
30150;DHT22;16962;48.646;9.026;2022-12-29T03:54:37;10.10;99.90
30150;DHT22;16962;48.646;9.026;2022-12-29T03:57:28;9.90;99.90
30150;DHT22;16962;48.646;9.026;2022-12-29T04:00:16;9.80;99.90
30150;DHT22;16962;48.646;9.026;2022-12-29T04:03:04;9.70;99.90
30150;DHT22;16962;48.646;9.026;2022-12-29T04:05:51;9.70;99.90
30150;DHT22;16962;48.646;9.026;2022-12-29T04:08:38;9.70;99.90
30150;DHT22;16962;48.646;9.026;2022-12-29T04:11:26;9.70;99.90
30150;DHT22;16962;48.646;9.026;2022-12-29T04:14:19;9.70;99.90
30150;DHT22;16962;48.646;9.026;2022-12-29T04:17:06;9.80;99.90
30150;DHT22;16962;48.646;9.026;2022-12-29T04:19:54;9.90;99.90
30150;DHT22;16962;48.646;9.026;2022-12-29T04:23:06;9.90;99.90
30150;DHT22;16962;48.646;9.026;2022-12-29T04:25:54;9.90;99.90
30150;DHT22;16962;48.646;9.026;2022-12-29T04:28:41;10.00;99.90
30150;DHT22;16962;48.646;9.026;2022-12-29T04:31:28;10.00;99.90
30150;DHT22;16962;48.646;9.026;2022-12-29T04:34:19;10.00;99.90
30150;DHT22;16962;48.646;9.026;2022-12-29T04:37:07;9.90;99.90
30150;DHT22;16962;48.646;9.026;2022-12-29T04:44:08;9.90;1.00
30150;DHT22;16962;48.646;9.026;2022-12-29T04:46:56;9.80;1.00
30150;DHT22;16962;48.646;9.026;2022-12-29T04:49:45;9.70;1.00
30150;DHT22;16962;48.646;9.026;2022-12-29T04:52:36;9.80;1.00
30150;DHT22;16962;48.646;9.026;2022-12-29T04:55:26;9.80;1.00
30150;DHT22;16962;48.646;9.026;2022-12-29T04:58:13;9.70;1.00
30150;DHT22;16962;48.646;9.026;2022-12-29T05:01:31;9.80;1.00
30150;DHT22;16962;48.646;9.026;2022-12-29T05:04:18;9.90;1.00
30150;DHT22;16962;48.646;9.026;2022-12-29T05:07:05;9.90;1.00
30150;DHT22;16962;48.646;9.026;2022-12-29T05:10:01;10.00;1.00
30150;DHT22;16962;48.646;9.026;2022-12-29T05:12:52;9.80;1.00
30150;DHT22;16962;48.646;9.026;2022-12-29T05:15:41;9.70;1.00
30150;DHT22;16962;48.646;9.026;2022-12-29T05:18:35;9.70;1.00
30150;DHT22;16962;48.646;9.026;2022-12-29T05:21:29;9.70;1.00
30150;DHT22;16962;48.646;9.026;2022-12-29T05:24:17;9.70;1.00
30150;DHT22;16962;48.646;9.026;2022-12-29T05:27:04;9.80;1.00
30150;DHT22;16962;48.646;9.026;2022-12-29T05:29:51;9.80;1.00
30150;DHT22;16962;48.646;9.026;2022-12-29T05:32:38;9.80;1.00
30150;DHT22;16962;48.646;9.026;2022-12-29T05:35:26;9.70;1.00
30150;DHT22;16962;48.646;9.026;2022-12-29T05:38:13;9.80;1.00
30150;DHT22;16962;48.646;9.026;2022-12-29T05:41:00;9.80;1.00
30150;DHT22;16962;48.646;9.026;2022-12-29T05:43:50;9.70;1.00
30150;DHT22;16962;48.646;9.026;2022-12-29T05:46:37;9.70;1.00
30150;DHT22;16962;48.646;9.026;2022-12-29T05:49:25;9.80;1.00
30150;DHT22;16962;48.646;9.026;2022-12-29T05:52:12;9.90;1.00
30150;DHT22;16962;48.646;9.026;2022-12-29T05:54:59;10.00;99.90
30150;DHT22;16962;48.646;9.026;2022-12-29T05:57:46;10.00;99.90
30150;DHT22;16962;48.646;9.026;2022-12-29T06:00:33;10.00;99.90
30150;DHT22;16962;48.646;9.026;2022-12-29T06:03:23;10.10;99.90
30150;DHT22;16962;48.646;9.026;2022-12-29T06:06:10;10.10;99.90
30150;DHT22;16962;48.646;9.026;2022-12-29T06:08:58;9.90;99.90
30150;DHT22;16962;48.646;9.026;2022-12-29T06:11:45;9.90;99.90
30150;DHT22;16962;48.646;9.026;2022-12-29T06:14:32;10.00;99.90
30150;DHT22;16962;48.646;9.026;2022-12-29T06:17:19;9.90;99.90
30150;DHT22;16962;48.646;9.026;2022-12-29T06:20:07;9.80;99.90
30150;DHT22;16962;48.646;9.026;2022-12-29T06:22:57;9.70;99.90
30150;DHT22;16962;48.646;9.026;2022-12-29T06:25:48;9.70;99.90
30150;DHT22;16962;48.646;9.026;2022-12-29T06:28:35;9.70;99.90
30150;DHT22;16962;48.646;9.026;2022-12-29T06:31:22;9.60;99.90
30150;DHT22;16962;48.646;9.026;2022-12-29T06:34:10;9.60;99.90
30150;DHT22;16962;48.646;9.026;2022-12-29T06:36:57;9.60;99.90
30150;DHT22;16962;48.646;9.026;2022-12-29T06:39:46;9.60;99.90
30150;DHT22;16962;48.646;9.026;2022-12-29T06:42:37;9.70;99.90
30150;DHT22;16962;48.646;9.026;2022-12-29T06:45:30;9.80;99.90
30150;DHT22;16962;48.646;9.026;2022-12-29T06:48:20;9.80;99.90
30150;DHT22;16962;48.646;9.026;2022-12-29T06:51:18;9.90;99.90
30150;DHT22;16962;48.646;9.026;2022-12-29T06:54:05;9.90;99.90
30150;DHT22;16962;48.646;9.026;2022-12-29T06:57:00;10.00;99.90
30150;DHT22;16962;48.646;9.026;2022-12-29T06:59:51;9.90;99.90
30150;DHT22;16962;48.646;9.026;2022-12-29T07:02:40;9.80;99.90
30150;DHT22;16962;48.646;9.026;2022-12-29T07:05:29;9.80;99.90
30150;DHT22;16962;48.646;9.026;2022-12-29T07:08:31;9.90;99.90
30150;DHT22;16962;48.646;9.026;2022-12-29T07:11:39;9.90;99.90
30150;DHT22;16962;48.646;9.026;2022-12-29T07:14:27;9.90;99.90
30150;DHT22;16962;48.646;9.026;2022-12-29T07:17:19;9.80;99.90
30150;DHT22;16962;48.646;9.026;2022-12-29T07:20:09;9.80;99.90
30150;DHT22;16962;48.646;9.026;2022-12-29T07:22:57;9.80;99.90
30150;DHT22;16962;48.646;9.026;2022-12-29T07:25:48;9.90;99.90
30150;DHT22;16962;48.646;9.026;2022-12-29T07:28:36;9.70;99.90
30150;DHT22;16962;48.646;9.026;2022-12-29T07:31:24;9.70;99.90
30150;DHT22;16962;48.646;9.026;2022-12-29T07:34:18;9.70;99.90
30150;DHT22;16962;48.646;9.026;2022-12-29T07:37:16;9.70;99.90
30150;DHT22;16962;48.646;9.026;2022-12-29T07:40:04;9.70;99.90
30150;DHT22;16962;48.646;9.026;2022-12-29T07:42:51;9.70;99.90
30150;DHT22;16962;48.646;9.026;2022-12-29T07:45:39;9.70;99.90
30150;DHT22;16962;48.646;9.026;2022-12-29T07:48:28;9.70;99.90
30150;DHT22;16962;48.646;9.026;2022-12-29T07:51:15;9.70;99.90
30150;DHT22;16962;48.646;9.026;2022-12-29T07:54:03;9.80;99.90
30150;DHT22;16962;48.646;9.026;2022-12-29T07:56:53;9.90;99.90
30150;DHT22;16962;48.646;9.026;2022-12-29T07:59:43;9.90;99.90
30150;DHT22;16962;48.646;9.026;2022-12-29T08:02:33;9.90;99.90
30150;DHT22;16962;48.646;9.026;2022-12-29T08:05:20;9.90;99.90
30150;DHT22;16962;48.646;9.026;2022-12-29T08:08:10;10.00;99.90
30150;DHT22;16962;48.646;9.026;2022-12-29T08:11:06;10.00;99.90
30150;DHT22;16962;48.646;9.026;2022-12-29T08:14:02;10.00;99.90
30150;DHT22;16962;48.646;9.026;2022-12-29T08:16:50;10.00;99.90
30150;DHT22;16962;48.646;9.026;2022-12-29T08:19:38;10.00;99.90
30150;DHT22;16962;48.646;9.026;2022-12-29T08:22:25;10.00;99.90
30150;DHT22;16962;48.646;9.026;2022-12-29T08:25:13;10.00;99.90
30150;DHT22;16962;48.646;9.026;2022-12-29T08:28:02;10.10;99.90
30150;DHT22;16962;48.646;9.026;2022-12-29T08:30:50;10.10;99.90
30150;DHT22;16962;48.646;9.026;2022-12-29T08:33:37;10.10;99.90
30150;DHT22;16962;48.646;9.026;2022-12-29T08:36:24;10.10;99.90
30150;DHT22;16962;48.646;9.026;2022-12-29T08:39:13;10.10;99.90
30150;DHT22;16962;48.646;9.026;2022-12-29T08:42:05;10.10;99.90
30150;DHT22;16962;48.646;9.026;2022-12-29T08:44:53;10.10;99.90
30150;DHT22;16962;48.646;9.026;2022-12-29T08:47:40;10.10;99.90
30150;DHT22;16962;48.646;9.026;2022-12-29T08:50:35;10.10;99.90
30150;DHT22;16962;48.646;9.026;2022-12-29T08:53:22;10.00;99.90
30150;DHT22;16962;48.646;9.026;2022-12-29T08:56:13;9.90;99.90
30150;DHT22;16962;48.646;9.026;2022-12-29T08:59:00;9.90;99.90
30150;DHT22;16962;48.646;9.026;2022-12-29T09:01:47;9.90;99.90
30150;DHT22;16962;48.646;9.026;2022-12-29T09:04:44;9.90;99.90
30150;DHT22;16962;48.646;9.026;2022-12-29T09:07:34;9.80;99.90
30150;DHT22;16962;48.646;9.026;2022-12-29T09:10:25;9.90;99.90
30150;DHT22;16962;48.646;9.026;2022-12-29T09:13:17;10.00;99.90
30150;DHT22;16962;48.646;9.026;2022-12-29T09:16:21;10.20;99.90
30150;DHT22;16962;48.646;9.026;2022-12-29T09:19:40;10.30;99.90
30150;DHT22;16962;48.646;9.026;2022-12-29T09:22:28;10.30;99.90
30150;DHT22;16962;48.646;9.026;2022-12-29T09:25:33;10.30;99.90
30150;DHT22;16962;48.646;9.026;2022-12-29T09:28:21;10.40;99.90
30150;DHT22;16962;48.646;9.026;2022-12-29T09:31:10;10.50;99.90
30150;DHT22;16962;48.646;9.026;2022-12-29T09:34:00;10.50;99.90
30150;DHT22;16962;48.646;9.026;2022-12-29T09:36:47;10.60;99.90
30150;DHT22;16962;48.646;9.026;2022-12-29T09:39:44;10.70;99.90
30150;DHT22;16962;48.646;9.026;2022-12-29T09:46:13;10.70;99.90
30150;DHT22;16962;48.646;9.026;2022-12-29T09:49:27;10.80;99.90
30150;DHT22;16962;48.646;9.026;2022-12-29T09:53:04;10.90;99.90
30150;DHT22;16962;48.646;9.026;2022-12-29T09:56:01;10.90;99.90
30150;DHT22;16962;48.646;9.026;2022-12-29T09:59:20;11.20;99.90
30150;DHT22;16962;48.646;9.026;2022-12-29T10:02:38;11.30;99.90
30150;DHT22;16962;48.646;9.026;2022-12-29T10:06:15;11.40;99.90
30150;DHT22;16962;48.646;9.026;2022-12-29T10:18:57;11.50;99.90
30150;DHT22;16962;48.646;9.026;2022-12-29T10:25:38;11.30;99.90
30150;DHT22;16962;48.646;9.026;2022-12-29T10:28:35;11.20;99.90
30150;DHT22;16962;48.646;9.026;2022-12-29T10:31:32;11.30;99.90
30150;DHT22;16962;48.646;9.026;2022-12-29T10:34:45;11.30;99.90
30150;DHT22;16962;48.646;9.026;2022-12-29T10:38:01;11.40;99.90
30150;DHT22;16962;48.646;9.026;2022-12-29T10:40:58;11.20;99.90
30150;DHT22;16962;48.646;9.026;2022-12-29T10:43:54;11.50;99.90
30150;DHT22;16962;48.646;9.026;2022-12-29T10:46:44;11.80;99.90
30150;DHT22;16962;48.646;9.026;2022-12-29T10:49:42;11.40;99.90
30150;DHT22;16962;48.646;9.026;2022-12-29T10:52:48;11.20;99.90
30150;DHT22;16962;48.646;9.026;2022-12-29T10:56:30;11.30;99.90
30150;DHT22;16962;48.646;9.026;2022-12-29T10:59:37;11.40;99.90
30150;DHT22;16962;48.646;9.026;2022-12-29T11:08:27;11.60;99.90
30150;DHT22;16962;48.646;9.026;2022-12-29T11:11:26;11.60;99.90
30150;DHT22;16962;48.646;9.026;2022-12-29T11:14:19;11.60;99.90
30150;DHT22;16962;48.646;9.026;2022-12-29T11:17:15;11.50;99.90
30150;DHT22;16962;48.646;9.026;2022-12-29T11:23:23;11.50;99.90
30150;DHT22;16962;48.646;9.026;2022-12-29T11:31:59;11.60;99.90
30150;DHT22;16962;48.646;9.026;2022-12-29T11:34:48;11.60;99.90
30150;DHT22;16962;48.646;9.026;2022-12-29T11:37:39;12.10;99.90
30150;DHT22;16962;48.646;9.026;2022-12-29T11:40:27;13.00;99.90
30150;DHT22;16962;48.646;9.026;2022-12-29T11:43:30;12.90;99.90
30150;DHT22;16962;48.646;9.026;2022-12-29T11:46:27;12.00;99.90
30150;DHT22;16962;48.646;9.026;2022-12-29T11:49:22;11.60;99.90
30150;DHT22;16962;48.646;9.026;2022-12-29T11:52:12;11.40;99.90
30150;DHT22;16962;48.646;9.026;2022-12-29T11:55:01;11.20;99.90
30150;DHT22;16962;48.646;9.026;2022-12-29T11:57:50;11.10;1.00
30150;DHT22;16962;48.646;9.026;2022-12-29T12:00:39;11.00;1.00
30150;DHT22;16962;48.646;9.026;2022-12-29T12:03:32;10.90;1.00
30150;DHT22;16962;48.646;9.026;2022-12-29T12:06:30;10.90;1.00
30150;DHT22;16962;48.646;9.026;2022-12-29T12:16:02;10.80;1.00
30150;DHT22;16962;48.646;9.026;2022-12-29T12:23:27;10.50;99.90
30150;DHT22;16962;48.646;9.026;2022-12-29T12:29:41;10.20;99.90
30150;DHT22;16962;48.646;9.026;2022-12-29T12:58:57;10.20;99.90
30150;DHT22;16962;48.646;9.026;2022-12-29T13:01:58;10.30;92.90
30150;DHT22;16962;48.646;9.026;2022-12-29T13:08:31;11.40;99.90
30150;DHT22;16962;48.646;9.026;2022-12-29T13:12:06;11.50;99.90
30150;DHT22;16962;48.646;9.026;2022-12-29T13:18:34;11.30;99.90
30150;DHT22;16962;48.646;9.026;2022-12-29T13:21:34;11.10;99.90
30150;DHT22;16962;48.646;9.026;2022-12-29T13:37:13;10.40;1.00
30150;DHT22;16962;48.646;9.026;2022-12-29T13:40:03;10.40;1.00
30150;DHT22;16962;48.646;9.026;2022-12-29T13:43:00;10.40;1.00
30150;DHT22;16962;48.646;9.026;2022-12-29T13:46:01;10.50;1.00
30150;DHT22;16962;48.646;9.026;2022-12-29T13:55:30;10.40;1.00
30150;DHT22;16962;48.646;9.026;2022-12-29T13:58:49;10.50;1.00
30150;DHT22;16962;48.646;9.026;2022-12-29T14:01:43;10.50;1.00
30150;DHT22;16962;48.646;9.026;2022-12-29T14:04:33;10.60;1.00
30150;DHT22;16962;48.646;9.026;2022-12-29T14:07:22;10.70;1.00
30150;DHT22;16962;48.646;9.026;2022-12-29T14:10:46;10.60;1.00
30150;DHT22;16962;48.646;9.026;2022-12-29T14:13:38;10.60;1.00
30150;DHT22;16962;48.646;9.026;2022-12-29T14:16:32;10.80;99.90
30150;DHT22;16962;48.646;9.026;2022-12-29T14:19:30;11.20;99.90
30150;DHT22;16962;48.646;9.026;2022-12-29T14:22:28;11.20;99.90
30150;DHT22;16962;48.646;9.026;2022-12-29T14:35:42;11.10;99.90
30150;DHT22;16962;48.646;9.026;2022-12-29T14:38:30;11.00;99.90
30150;DHT22;16962;48.646;9.026;2022-12-29T14:41:33;10.80;99.90
30150;DHT22;16962;48.646;9.026;2022-12-29T14:44:28;10.60;99.90
30150;DHT22;16962;48.646;9.026;2022-12-29T14:47:26;10.50;99.90
30150;DHT22;16962;48.646;9.026;2022-12-29T14:50:39;10.50;99.90
30150;DHT22;16962;48.646;9.026;2022-12-29T14:53:49;10.50;99.90
30150;DHT22;16962;48.646;9.026;2022-12-29T14:56:38;10.40;99.90
30150;DHT22;16962;48.646;9.026;2022-12-29T14:59:26;10.40;99.90
30150;DHT22;16962;48.646;9.026;2022-12-29T15:02:24;10.30;99.90
30150;DHT22;16962;48.646;9.026;2022-12-29T15:05:50;10.30;99.90
30150;DHT22;16962;48.646;9.026;2022-12-29T15:08:59;10.30;99.90
30150;DHT22;16962;48.646;9.026;2022-12-29T15:11:53;10.30;99.90
30150;DHT22;16962;48.646;9.026;2022-12-29T15:14:51;10.30;99.90
30150;DHT22;16962;48.646;9.026;2022-12-29T15:17:38;10.20;99.90
30150;DHT22;16962;48.646;9.026;2022-12-29T15:20:29;10.20;99.90
30150;DHT22;16962;48.646;9.026;2022-12-29T15:23:20;10.10;99.90
30150;DHT22;16962;48.646;9.026;2022-12-29T15:26:08;10.10;99.90
30150;DHT22;16962;48.646;9.026;2022-12-29T15:28:57;10.10;99.90
30150;DHT22;16962;48.646;9.026;2022-12-29T15:31:47;10.10;99.90
30150;DHT22;16962;48.646;9.026;2022-12-29T15:34:36;10.20;99.90
30150;DHT22;16962;48.646;9.026;2022-12-29T15:37:34;10.30;99.90
30150;DHT22;16962;48.646;9.026;2022-12-29T15:43:21;10.30;99.90
30150;DHT22;16962;48.646;9.026;2022-12-29T15:46:13;10.30;99.90
30150;DHT22;16962;48.646;9.026;2022-12-29T15:49:20;10.10;99.90
30150;DHT22;16962;48.646;9.026;2022-12-29T15:52:19;10.10;99.90
30150;DHT22;16962;48.646;9.026;2022-12-29T15:55:37;10.10;99.90
30150;DHT22;16962;48.646;9.026;2022-12-29T15:58:46;10.00;99.90
30150;DHT22;16962;48.646;9.026;2022-12-29T16:01:48;10.00;99.90
30150;DHT22;16962;48.646;9.026;2022-12-29T16:04:43;10.00;99.90
30150;DHT22;16962;48.646;9.026;2022-12-29T16:08:29;10.00;99.90
30150;DHT22;16962;48.646;9.026;2022-12-29T16:11:40;10.10;99.90
30150;DHT22;16962;48.646;9.026;2022-12-29T16:15:00;10.10;99.90
30150;DHT22;16962;48.646;9.026;2022-12-29T16:17:50;10.00;99.90
30150;DHT22;16962;48.646;9.026;2022-12-29T16:20:41;9.70;99.90
30150;DHT22;16962;48.646;9.026;2022-12-29T16:23:37;9.50;10.60
30150;DHT22;16962;48.646;9.026;2022-12-29T16:27:09;9.30;99.90
30150;DHT22;16962;48.646;9.026;2022-12-29T16:30:34;9.30;1.00
30150;DHT22;16962;48.646;9.026;2022-12-29T16:33:46;9.20;45.10
30150;DHT22;16962;48.646;9.026;2022-12-29T16:36:40;9.00;99.90
30150;DHT22;16962;48.646;9.026;2022-12-29T16:39:51;8.90;1.00
30150;DHT22;16962;48.646;9.026;2022-12-29T16:43:01;8.80;1.00
30150;DHT22;16962;48.646;9.026;2022-12-29T16:48:50;8.60;1.00
30150;DHT22;16962;48.646;9.026;2022-12-29T16:51:48;8.60;99.90
30150;DHT22;16962;48.646;9.026;2022-12-29T16:54:54;8.60;1.00
30150;DHT22;16962;48.646;9.026;2022-12-29T16:57:50;8.60;88.70
30150;DHT22;16962;48.646;9.026;2022-12-29T17:00:46;8.60;99.90
30150;DHT22;16962;48.646;9.026;2022-12-29T17:03:39;8.60;26.80
30150;DHT22;16962;48.646;9.026;2022-12-29T17:06:40;8.60;99.90
30150;DHT22;16962;48.646;9.026;2022-12-29T17:09:28;8.50;99.90
30150;DHT22;16962;48.646;9.026;2022-12-29T17:12:27;8.40;99.90
30150;DHT22;16962;48.646;9.026;2022-12-29T17:15:33;8.20;1.00
30150;DHT22;16962;48.646;9.026;2022-12-29T17:19:06;8.10;1.00
30150;DHT22;16962;48.646;9.026;2022-12-29T17:22:09;7.90;4.70
30150;DHT22;16962;48.646;9.026;2022-12-29T17:25:00;7.90;99.90
30150;DHT22;16962;48.646;9.026;2022-12-29T17:30:52;7.80;89.10
30150;DHT22;16962;48.646;9.026;2022-12-29T17:33:51;7.80;99.90
30150;DHT22;16962;48.646;9.026;2022-12-29T17:36:46;7.70;99.90
30150;DHT22;16962;48.646;9.026;2022-12-29T17:39:38;7.60;99.90
30150;DHT22;16962;48.646;9.026;2022-12-29T17:42:26;7.60;99.90
30150;DHT22;16962;48.646;9.026;2022-12-29T17:45:30;7.60;99.90
30150;DHT22;16962;48.646;9.026;2022-12-29T17:48:19;7.70;99.90
30150;DHT22;16962;48.646;9.026;2022-12-29T17:51:10;7.70;99.90
30150;DHT22;16962;48.646;9.026;2022-12-29T17:54:24;7.70;99.90
30150;DHT22;16962;48.646;9.026;2022-12-29T17:57:14;7.60;99.90
30150;DHT22;16962;48.646;9.026;2022-12-29T18:00:14;7.60;99.90
30150;DHT22;16962;48.646;9.026;2022-12-29T18:03:22;7.50;99.90
30150;DHT22;16962;48.646;9.026;2022-12-29T18:06:30;7.60;99.90
30150;DHT22;16962;48.646;9.026;2022-12-29T18:09:19;7.60;99.90
30150;DHT22;16962;48.646;9.026;2022-12-29T18:12:57;7.60;99.90
30150;DHT22;16962;48.646;9.026;2022-12-29T18:15:50;7.60;99.90
30150;DHT22;16962;48.646;9.026;2022-12-29T18:19:01;7.60;99.90
30150;DHT22;16962;48.646;9.026;2022-12-29T18:22:28;7.70;99.90
30150;DHT22;16962;48.646;9.026;2022-12-29T18:28:34;7.70;99.90
30150;DHT22;16962;48.646;9.026;2022-12-29T18:31:24;7.60;99.90
30150;DHT22;16962;48.646;9.026;2022-12-29T18:34:15;7.60;99.90
30150;DHT22;16962;48.646;9.026;2022-12-29T18:37:04;7.70;99.90
30150;DHT22;16962;48.646;9.026;2022-12-29T18:39:52;7.70;99.90
30150;DHT22;16962;48.646;9.026;2022-12-29T18:42:47;7.70;99.90
30150;DHT22;16962;48.646;9.026;2022-12-29T18:45:39;7.70;99.90
30150;DHT22;16962;48.646;9.026;2022-12-29T18:48:39;7.70;99.90
30150;DHT22;16962;48.646;9.026;2022-12-29T18:51:26;7.70;99.90
30150;DHT22;16962;48.646;9.026;2022-12-29T18:54:31;7.70;99.90
30150;DHT22;16962;48.646;9.026;2022-12-29T18:57:19;7.60;99.90
30150;DHT22;16962;48.646;9.026;2022-12-29T19:00:07;7.60;99.90
30150;DHT22;16962;48.646;9.026;2022-12-29T19:02:59;7.60;99.90
30150;DHT22;16962;48.646;9.026;2022-12-29T19:06:11;7.60;99.90
30150;DHT22;16962;48.646;9.026;2022-12-29T19:09:07;7.60;99.90
30150;DHT22;16962;48.646;9.026;2022-12-29T19:12:15;7.50;99.90
30150;DHT22;16962;48.646;9.026;2022-12-29T19:18:20;7.50;99.90
30150;DHT22;16962;48.646;9.026;2022-12-29T19:21:28;7.40;99.90
30150;DHT22;16962;48.646;9.026;2022-12-29T19:24:18;7.40;99.90
30150;DHT22;16962;48.646;9.026;2022-12-29T19:27:08;7.30;99.90
30150;DHT22;16962;48.646;9.026;2022-12-29T19:30:15;7.30;99.90
30150;DHT22;16962;48.646;9.026;2022-12-29T19:33:06;7.20;99.90
30150;DHT22;16962;48.646;9.026;2022-12-29T19:36:18;7.20;99.90
30150;DHT22;16962;48.646;9.026;2022-12-29T19:39:06;7.10;99.90
30150;DHT22;16962;48.646;9.026;2022-12-29T19:42:11;7.10;99.90
30150;DHT22;16962;48.646;9.026;2022-12-29T19:45:22;7.00;99.90
30150;DHT22;16962;48.646;9.026;2022-12-29T19:48:20;7.00;99.90
30150;DHT22;16962;48.646;9.026;2022-12-29T19:51:10;6.90;99.90
30150;DHT22;16962;48.646;9.026;2022-12-29T19:54:02;7.00;99.90
30150;DHT22;16962;48.646;9.026;2022-12-29T19:56:49;7.00;99.90
30150;DHT22;16962;48.646;9.026;2022-12-29T19:59:36;6.90;99.90
30150;DHT22;16962;48.646;9.026;2022-12-29T20:02:32;6.90;99.90
30150;DHT22;16962;48.646;9.026;2022-12-29T20:05:20;6.80;99.90
30150;DHT22;16962;48.646;9.026;2022-12-29T20:08:10;6.80;99.90
30150;DHT22;16962;48.646;9.026;2022-12-29T20:11:01;6.80;99.90
30150;DHT22;16962;48.646;9.026;2022-12-29T20:13:54;6.70;99.90
30150;DHT22;16962;48.646;9.026;2022-12-29T20:16:42;6.70;99.90
30150;DHT22;16962;48.646;9.026;2022-12-29T20:19:49;6.70;99.90
30150;DHT22;16962;48.646;9.026;2022-12-29T20:22:40;6.70;99.90
30150;DHT22;16962;48.646;9.026;2022-12-29T20:25:28;6.60;99.90
30150;DHT22;16962;48.646;9.026;2022-12-29T20:28:33;6.60;99.90
30150;DHT22;16962;48.646;9.026;2022-12-29T20:31:27;6.60;99.90
30150;DHT22;16962;48.646;9.026;2022-12-29T20:34:15;6.60;99.90
30150;DHT22;16962;48.646;9.026;2022-12-29T20:37:05;6.60;99.90
30150;DHT22;16962;48.646;9.026;2022-12-29T20:39:52;6.60;99.90
30150;DHT22;16962;48.646;9.026;2022-12-29T20:42:40;6.50;99.90
30150;DHT22;16962;48.646;9.026;2022-12-29T20:45:27;6.50;99.90
30150;DHT22;16962;48.646;9.026;2022-12-29T20:48:15;6.50;99.90
30150;DHT22;16962;48.646;9.026;2022-12-29T20:51:03;6.50;99.90
30150;DHT22;16962;48.646;9.026;2022-12-29T20:53:55;6.40;99.90
30150;DHT22;16962;48.646;9.026;2022-12-29T20:57:02;6.40;99.90
30150;DHT22;16962;48.646;9.026;2022-12-29T20:59:52;6.40;99.90
30150;DHT22;16962;48.646;9.026;2022-12-29T21:02:40;6.40;99.90
30150;DHT22;16962;48.646;9.026;2022-12-29T21:05:28;6.40;99.90
30150;DHT22;16962;48.646;9.026;2022-12-29T21:08:29;6.30;99.90
30150;DHT22;16962;48.646;9.026;2022-12-29T21:11:23;6.30;99.90
30150;DHT22;16962;48.646;9.026;2022-12-29T21:14:33;6.30;99.90
30150;DHT22;16962;48.646;9.026;2022-12-29T21:17:25;6.30;99.90
30150;DHT22;16962;48.646;9.026;2022-12-29T21:20:16;6.30;99.90
30150;DHT22;16962;48.646;9.026;2022-12-29T21:23:09;6.30;99.90
30150;DHT22;16962;48.646;9.026;2022-12-29T21:25:57;6.30;99.90
30150;DHT22;16962;48.646;9.026;2022-12-29T21:28:46;6.20;99.90